createdAt,value
2022-12-25T00:00:56.167Z,100536.41
2022-12-25T00:03:22.919Z,100529.91
2022-12-25T00:05:49.367Z,100527.75
2022-12-25T00:08:15.721Z,100516.75
2022-12-25T00:10:45.387Z,100517.94
2022-12-25T00:13:12.233Z,100517.28
2022-12-25T00:15:41.659Z,100510.44
2022-12-25T00:18:08.163Z,100505.75
2022-12-25T00:20:34.534Z,100496.44
2022-12-25T00:23:00.851Z,100501.09
2022-12-25T00:25:27.196Z,100496.59
2022-12-25T00:27:53.560Z,100497.44
2022-12-25T00:30:19.923Z,100497.25
2022-12-25T00:32:46.343Z,100501.09
2022-12-25T00:35:12.680Z,100512.44
2022-12-25T00:37:39.137Z,100506.94
2022-12-25T00:40:06.017Z,100507.09
2022-12-25T00:42:32.436Z,100506.44
2022-12-25T00:44:58.822Z,100515.78
2022-12-25T00:47:25.211Z,100519.59
2022-12-25T00:49:51.584Z,100520.75
2022-12-25T00:52:17.928Z,100517.28
2022-12-25T00:54:44.255Z,100513.78
2022-12-25T00:57:10.612Z,100501.09
2022-12-25T00:59:36.966Z,100506.25
2022-12-25T01:02:21.995Z,100503.28
2022-12-25T01:04:49.679Z,100504.13
2022-12-25T01:07:18.972Z,100500.94
2022-12-25T01:10:05.037Z,100507.28
2022-12-25T01:12:33.613Z,100498.44
2022-12-25T01:14:59.973Z,100506.91
2022-12-25T01:17:26.331Z,100516.59
2022-12-25T01:19:52.814Z,100521.75
2022-12-25T01:22:19.834Z,100515.78
2022-12-25T01:24:46.250Z,100518.09
2022-12-25T01:27:12.583Z,100526.09
2022-12-25T01:29:39.059Z,100536.91
2022-12-25T01:32:05.982Z,100534.09
2022-12-25T01:34:32.531Z,100531.25
2022-12-25T01:36:58.941Z,100534.75
2022-12-25T01:39:25.391Z,100529.25
2022-12-25T01:41:51.803Z,100522.75
2022-12-25T01:44:18.025Z,100514.59
2022-12-25T01:46:44.925Z,100508.91
2022-12-25T01:49:23.184Z,100515.88
2022-12-25T01:51:57.212Z,100513.88
2022-12-25T01:54:27.075Z,100512.06
2022-12-25T01:56:55.387Z,100523.22
2022-12-25T01:59:23.668Z,100508.22
2022-12-25T02:01:50.603Z,100495.72
2022-12-25T02:04:24.540Z,100498.19
2022-12-25T02:06:51.629Z,100511.19
2022-12-25T02:09:18.879Z,100505.19
2022-12-25T02:11:58.308Z,100517.69
2022-12-25T02:14:31.333Z,100508.22
2022-12-25T02:17:13.505Z,100516.72
2022-12-25T02:20:03.295Z,100506.88
2022-12-25T02:22:49.457Z,100497.72
2022-12-25T02:25:37.714Z,100495.22
2022-12-25T02:28:22.758Z,100496.38
2022-12-25T02:30:54.253Z,100497.88
2022-12-25T02:33:53.109Z,100501.72
2022-12-25T02:36:23.271Z,100494.06
2022-12-25T02:39:12.725Z,100496.91
2022-12-25T02:41:40.700Z,100490.06
2022-12-25T02:44:31.172Z,100493.41
2022-12-25T02:47:16.196Z,100478.75
2022-12-25T02:50:00.919Z,100480.41
2022-12-25T02:52:46.895Z,100480.75
2022-12-25T02:55:35.296Z,100488.53
2022-12-25T02:58:24.178Z,100479.53
2022-12-25T03:01:14.228Z,100483.72
2022-12-25T03:03:59.747Z,100489.56
2022-12-25T03:06:43.373Z,100468.56
2022-12-25T03:09:35.383Z,100469.75
2022-12-25T03:12:29.698Z,100478.38
2022-12-25T03:15:14.918Z,100486.38
2022-12-25T03:17:41.311Z,100485.38
2022-12-25T03:20:26.958Z,100492.72
2022-12-25T03:23:11.856Z,100492.22
2022-12-25T03:25:56.851Z,100494.72
2022-12-25T03:28:23.179Z,100495.56
2022-12-25T03:31:14.320Z,100493.22
2022-12-25T03:34:18.039Z,100496.56
2022-12-25T03:37:39.528Z,100493.41
2022-12-25T03:40:36.084Z,100489.91
2022-12-25T03:43:29.029Z,100490.56
2022-12-25T03:46:16.918Z,100482.91
2022-12-25T03:49:05.208Z,100485.75
2022-12-25T03:51:51.243Z,100479.25
2022-12-25T03:54:39.958Z,100468.41
2022-12-25T03:57:25.634Z,100470.25
2022-12-25T04:00:10.258Z,100462.09
2022-12-25T04:02:56.137Z,100455.41
2022-12-25T04:05:41.180Z,100459.56
2022-12-25T04:08:26.013Z,100454.25
2022-12-25T04:11:10.826Z,100458.75
2022-12-25T04:13:55.953Z,100452.91
2022-12-25T04:16:40.816Z,100452.56
2022-12-25T04:19:25.506Z,100449.22
2022-12-25T04:22:12.816Z,100458.88
2022-12-25T04:24:57.503Z,100469.38
2022-12-25T04:27:42.337Z,100452.91
2022-12-25T04:30:27.524Z,100441.06
2022-12-25T04:33:16.908Z,100448.06
2022-12-25T04:36:06.282Z,100456.56
2022-12-25T04:38:33.272Z,100451.09
2022-12-25T04:41:00.830Z,100459.41
2022-12-25T04:43:27.407Z,100463.25
2022-12-25T04:45:59.402Z,100450.56
2022-12-25T04:48:27.420Z,100454.75
2022-12-25T04:50:53.989Z,100450.56
2022-12-25T04:53:20.411Z,100449.56
2022-12-25T04:55:46.739Z,100459.25
2022-12-25T04:58:13.120Z,100455.91
2022-12-25T05:00:42.292Z,100453.41
2022-12-25T05:03:08.818Z,100440.28
2022-12-25T05:05:39.057Z,100433.25
2022-12-25T05:08:05.734Z,100444.25
2022-12-25T05:10:32.140Z,100450.91
2022-12-25T05:12:58.586Z,100453.22
2022-12-25T05:15:24.980Z,100457.41
2022-12-25T05:17:51.340Z,100452.91
2022-12-25T05:20:18.154Z,100448.75
2022-12-25T05:22:44.518Z,100457.25
2022-12-25T05:25:11.010Z,100458.88
2022-12-25T05:27:37.363Z,100451.22
2022-12-25T05:30:04.071Z,100459.06
2022-12-25T05:32:31.048Z,100455.72
2022-12-25T05:34:59.498Z,100462.22
2022-12-25T05:37:26.549Z,100458.56
2022-12-25T05:39:52.901Z,100452.41
2022-12-25T05:42:19.267Z,100448.06
2022-12-25T05:44:45.594Z,100448.41
2022-12-25T05:47:12.015Z,100437.75
2022-12-25T05:49:38.324Z,100438.25
2022-12-25T05:52:04.694Z,100443.44
2022-12-25T05:54:31.055Z,100438.41
2022-12-25T05:56:57.394Z,100440.09
2022-12-25T05:59:23.771Z,100447.41
2022-12-25T06:01:50.185Z,100436.94
2022-12-25T06:04:16.752Z,100439.59
2022-12-25T06:06:43.095Z,100437.44
2022-12-25T06:09:11.908Z,100436.59
2022-12-25T06:11:38.300Z,100432.78
2022-12-25T06:14:04.896Z,100434.59
2022-12-25T06:16:37.723Z,100431.41
2022-12-25T06:19:04.379Z,100433.78
2022-12-25T06:21:30.733Z,100417.78
2022-12-25T06:23:57.284Z,100419.09
2022-12-25T06:26:23.669Z,100413.59
2022-12-25T06:28:50.030Z,100404.97
2022-12-25T06:31:19.099Z,100409.78
2022-12-25T06:33:45.716Z,100409.13
2022-12-25T06:36:17.465Z,100411.44
2022-12-25T06:38:43.919Z,100410.94
2022-12-25T06:41:15.818Z,100403.09
2022-12-25T06:43:42.483Z,100405.09
2022-12-25T06:46:11.625Z,100407.59
2022-12-25T06:48:39.326Z,100415.44
2022-12-25T06:51:06.467Z,100412.28
2022-12-25T06:53:39.880Z,100404.44
2022-12-25T06:56:09.267Z,100412.44
2022-12-25T06:58:35.762Z,100414.94
2022-12-25T07:01:15.052Z,100415.25
2022-12-25T07:03:42.914Z,100424.44
2022-12-25T07:06:09.318Z,100432.44
2022-12-25T07:08:35.652Z,100423.13
2022-12-25T07:11:02.006Z,100426.44
2022-12-25T07:13:28.464Z,100417.44
2022-12-25T07:15:58.931Z,100418.28
2022-12-25T07:18:26.146Z,100428.09
2022-12-25T07:20:52.504Z,100419.94
2022-12-25T07:23:18.879Z,100424.78
2022-12-25T07:25:53.525Z,100418.78
2022-12-25T07:28:19.892Z,100407.31
2022-12-25T07:30:46.222Z,100405.47
2022-12-25T07:33:12.602Z,100404.97
2022-12-25T07:35:38.924Z,100396.81
2022-12-25T07:38:05.284Z,100410.97
2022-12-25T07:40:31.624Z,100397.97
2022-12-25T07:42:58.006Z,100393.63
2022-12-25T07:45:24.416Z,100395.47
2022-12-25T07:47:53.776Z,100394.81
2022-12-25T07:50:21.366Z,100400.47
2022-12-25T07:52:47.706Z,100403.47
2022-12-25T07:55:14.095Z,100395.31
2022-12-25T07:57:40.437Z,100392.97
2022-12-25T08:00:07.396Z,100395.97
2022-12-25T08:02:33.990Z,100408.78
2022-12-25T08:05:00.510Z,100410.47
2022-12-25T08:07:27.287Z,100423.78
2022-12-25T08:09:53.646Z,100411.44
2022-12-25T08:12:20.023Z,100397.78
2022-12-25T08:14:46.369Z,100384.47
2022-12-25T08:17:12.722Z,100363.47
2022-12-25T08:19:39.158Z,100357.81
2022-12-25T08:22:05.744Z,100343.34
2022-12-25T08:24:32.114Z,100346.00
2022-12-25T08:26:58.687Z,100338.47
2022-12-25T08:29:25.265Z,100344.47
2022-12-25T08:31:51.721Z,100369.81
2022-12-25T08:34:19.234Z,100376.63
2022-12-25T08:36:45.671Z,100389.81
2022-12-25T08:39:12.061Z,100379.81
2022-12-25T08:41:38.513Z,100370.81
2022-12-25T08:44:05.171Z,100367.47
2022-12-25T08:46:31.693Z,100358.00
2022-12-25T08:48:58.158Z,100360.81
2022-12-25T08:51:25.768Z,100342.50
2022-12-25T08:53:53.239Z,100354.31
2022-12-25T08:56:20.287Z,100367.31
2022-12-25T08:58:47.041Z,100369.31
2022-12-25T09:01:13.613Z,100369.13
2022-12-25T09:03:40.182Z,100373.97
2022-12-25T09:06:09.393Z,100374.63
2022-12-25T09:08:36.261Z,100391.13
2022-12-25T09:11:03.861Z,100385.47
2022-12-25T09:13:30.239Z,100385.78
2022-12-25T09:15:56.655Z,100390.47
2022-12-25T09:18:23.062Z,100380.94
2022-12-25T09:21:03.652Z,100382.47
2022-12-25T09:23:30.404Z,100379.97
2022-12-25T09:26:01.050Z,100384.78
2022-12-25T09:28:27.420Z,100383.63
2022-12-25T09:30:54.020Z,100380.47
2022-12-25T09:33:21.145Z,100381.44
2022-12-25T09:35:58.112Z,100378.28
2022-12-25T09:38:25.090Z,100377.94
2022-12-25T09:41:02.186Z,100376.59
2022-12-25T09:43:30.506Z,100376.59
2022-12-25T09:45:57.969Z,100356.91
2022-12-25T09:48:24.868Z,100356.56
2022-12-25T09:50:56.772Z,100354.06
2022-12-25T09:53:25.805Z,100359.44
2022-12-25T09:56:00.147Z,100357.75
2022-12-25T09:58:27.050Z,100350.72
2022-12-25T10:01:01.484Z,100340.44
2022-12-25T10:03:58.320Z,100317.38
2022-12-25T10:06:30.621Z,100306.03
2022-12-25T10:09:30.336Z,100307.03
2022-12-25T10:12:15.327Z,100289.97
2022-12-25T10:15:03.225Z,100280.66
2022-12-25T10:18:04.939Z,100263.31
2022-12-25T10:20:43.253Z,100276.13
2022-12-25T10:23:14.786Z,100300.63
2022-12-25T10:25:41.866Z,100315.44
2022-12-25T10:28:40.612Z,100317.25
2022-12-25T10:31:22.822Z,100313.59
2022-12-25T10:33:50.436Z,100311.59
2022-12-25T10:36:25.581Z,100315.25
2022-12-25T10:38:52.351Z,100299.81
2022-12-25T10:41:25.336Z,100290.97
2022-12-25T10:43:56.604Z,100284.13
2022-12-25T10:46:25.233Z,100292.47
2022-12-25T10:49:00.176Z,100285.47
2022-12-25T10:51:35.598Z,100294.50
2022-12-25T10:54:03.121Z,100284.66
2022-12-25T10:56:29.822Z,100281.81
2022-12-25T10:59:06.920Z,100271.09
2022-12-25T11:01:33.513Z,100276.38
2022-12-25T11:03:59.998Z,100271.81
2022-12-25T11:06:29.757Z,100273.53
2022-12-25T11:09:02.839Z,100272.16
2022-12-25T11:11:30.007Z,100269.91
2022-12-25T11:13:59.300Z,100270.50
2022-12-25T11:16:29.686Z,100258.44
2022-12-25T11:18:57.036Z,100262.13
2022-12-25T11:21:31.926Z,100264.13
2022-12-25T11:24:04.408Z,100265.00
2022-12-25T11:26:36.541Z,100266.00
2022-12-25T11:29:03.276Z,100264.47
2022-12-25T11:31:37.809Z,100256.97
2022-12-25T11:34:16.663Z,100253.31
2022-12-25T11:36:48.147Z,100258.16
2022-12-25T11:39:29.099Z,100252.13
2022-12-25T11:42:07.622Z,100245.97
2022-12-25T11:44:45.540Z,100236.28
2022-12-25T11:47:42.944Z,100240.78
2022-12-25T11:50:15.560Z,100230.59
2022-12-25T11:52:45.407Z,100219.41
2022-12-25T11:55:33.577Z,100211.63
2022-12-25T11:58:06.583Z,100195.41
2022-12-25T12:00:35.331Z,100180.66
2022-12-25T12:03:24.010Z,100179.13
2022-12-25T12:06:05.509Z,100172.06
2022-12-25T12:08:32.935Z,100159.75
2022-12-25T12:11:37.521Z,100140.34
2022-12-25T12:14:39.564Z,100165.56
2022-12-25T12:17:10.965Z,100167.94
2022-12-25T12:19:38.865Z,100170.91
2022-12-25T12:22:05.545Z,100169.47
2022-12-25T12:24:37.839Z,100162.38
2022-12-25T12:27:21.080Z,100164.91
2022-12-25T12:29:50.284Z,100154.84
2022-12-25T12:32:35.070Z,100151.53
2022-12-25T12:35:13.484Z,100147.97
2022-12-25T12:37:40.648Z,100144.78
2022-12-25T12:40:20.796Z,100142.28
2022-12-25T12:42:50.444Z,100133.88
2022-12-25T12:45:20.071Z,100137.78
2022-12-25T12:47:50.928Z,100144.66
2022-12-25T12:50:29.614Z,100150.22
2022-12-25T12:52:56.167Z,100147.50
2022-12-25T12:55:33.882Z,100148.19
2022-12-25T12:58:02.648Z,100153.53
2022-12-25T13:00:41.767Z,100141.81
2022-12-25T13:03:40.933Z,100133.78
2022-12-25T13:06:33.155Z,100126.56
2022-12-25T13:09:15.155Z,100129.50
2022-12-25T13:11:43.288Z,100130.81
2022-12-25T13:14:16.089Z,100131.91
2022-12-25T13:16:44.638Z,100144.19
2022-12-25T13:19:15.093Z,100158.28
2022-12-25T13:22:01.504Z,100153.81
2022-12-25T13:24:30.899Z,100153.81
2022-12-25T13:26:58.760Z,100147.63
2022-12-25T13:29:33.343Z,100139.22
2022-12-25T13:32:02.002Z,100124.06
2022-12-25T13:34:31.817Z,100126.31
2022-12-25T13:37:13.670Z,100136.50
2022-12-25T13:39:48.083Z,100117.44
2022-12-25T13:42:17.589Z,100112.59
2022-12-25T13:44:59.001Z,100108.22
2022-12-25T13:47:32.565Z,100104.53
2022-12-25T13:50:01.816Z,100099.56
2022-12-25T13:52:35.024Z,100099.19
2022-12-25T13:55:12.226Z,100112.94
2022-12-25T13:57:41.324Z,100113.41
2022-12-25T14:00:18.318Z,100109.59
2022-12-25T14:02:45.348Z,100107.84
2022-12-25T14:05:32.291Z,100109.72
2022-12-25T14:08:13.575Z,100114.78
2022-12-25T14:10:40.992Z,100119.16
2022-12-25T14:13:11.497Z,100124.75
2022-12-25T14:15:40.417Z,100125.09
2022-12-25T14:18:07.383Z,100123.44
2022-12-25T14:20:40.121Z,100117.75
2022-12-25T14:23:07.191Z,100114.06
2022-12-25T14:25:36.261Z,100113.25
2022-12-25T14:28:07.131Z,100116.31
2022-12-25T14:30:34.334Z,100108.13
2022-12-25T14:33:02.523Z,100098.69
2022-12-25T14:35:29.032Z,100099.50
2022-12-25T14:37:59.830Z,100117.38
2022-12-25T14:40:30.690Z,100122.56
2022-12-25T14:43:01.321Z,100118.06
2022-12-25T14:45:36.041Z,100127.75
2022-12-25T14:48:19.786Z,100123.59
2022-12-25T14:51:02.607Z,100125.97
2022-12-25T14:53:34.660Z,100120.63
2022-12-25T14:56:01.193Z,100125.47
2022-12-25T14:58:30.987Z,100120.53
2022-12-25T15:01:02.045Z,100129.38
2022-12-25T15:03:36.617Z,100127.25
2022-12-25T15:06:04.012Z,100118.03
2022-12-25T15:08:31.301Z,100106.19
2022-12-25T15:11:01.129Z,100112.84
2022-12-25T15:13:29.009Z,100105.59
2022-12-25T15:16:02.846Z,100111.66
2022-12-25T15:18:33.304Z,100118.19
2022-12-25T15:20:59.870Z,100122.53
2022-12-25T15:23:26.287Z,100110.69
2022-12-25T15:25:52.901Z,100109.88
2022-12-25T15:28:19.524Z,100103.22
2022-12-25T15:30:46.115Z,100114.44
2022-12-25T15:33:17.830Z,100111.97
2022-12-25T15:35:44.547Z,100104.97
2022-12-25T15:38:12.023Z,100103.66
2022-12-25T15:40:38.775Z,100093.97
2022-12-25T15:43:11.205Z,100099.31
2022-12-25T15:45:48.808Z,100097.31
2022-12-25T15:48:15.163Z,100105.34
2022-12-25T15:50:41.525Z,100118.56
2022-12-25T15:53:07.906Z,100117.38
2022-12-25T15:55:34.447Z,100110.63
2022-12-25T15:58:00.777Z,100116.41
2022-12-25T16:00:27.232Z,100114.63
2022-12-25T16:02:53.904Z,100106.13
2022-12-25T16:05:20.299Z,100115.31
2022-12-25T16:07:46.645Z,100120.16
2022-12-25T16:10:18.431Z,100096.63
2022-12-25T16:12:45.607Z,100096.50
2022-12-25T16:15:13.447Z,100086.81
2022-12-25T16:17:39.816Z,100087.50
2022-12-25T16:20:07.243Z,100084.97
2022-12-25T16:22:39.594Z,100089.69
2022-12-25T16:25:17.478Z,100083.72
2022-12-25T16:27:43.907Z,100077.31
2022-12-25T16:30:12.478Z,100070.81
2022-12-25T16:32:38.964Z,100071.50
2022-12-25T16:35:05.883Z,100071.22
2022-12-25T16:37:32.274Z,100073.34
2022-12-25T16:39:58.636Z,100075.66
2022-12-25T16:42:25.080Z,100067.81
2022-12-25T16:44:51.551Z,100087.34
2022-12-25T16:47:17.901Z,100083.06
2022-12-25T16:49:44.280Z,100086.59
2022-12-25T16:52:10.644Z,100084.28
2022-12-25T16:54:37.022Z,100097.56
2022-12-25T16:57:03.393Z,100100.75
2022-12-25T16:59:30.158Z,100101.63
2022-12-25T17:01:56.757Z,100105.19
2022-12-25T17:04:23.172Z,100108.66
2022-12-25T17:06:49.496Z,100121.81
2022-12-25T17:09:15.864Z,100125.47
2022-12-25T17:11:42.225Z,100119.47
2022-12-25T17:14:10.270Z,100120.19
2022-12-25T17:16:37.901Z,100115.00
2022-12-25T17:19:08.184Z,100123.84
2022-12-25T17:21:35.333Z,100118.66
2022-12-25T17:24:04.049Z,100114.50
2022-12-25T17:26:31.929Z,100124.41
2022-12-25T17:28:58.418Z,100131.84
2022-12-25T17:31:24.838Z,100131.00
2022-12-25T17:33:51.447Z,100127.31
2022-12-25T17:36:19.340Z,100116.66
2022-12-25T17:38:46.188Z,100115.00
2022-12-25T17:41:14.995Z,100110.31
2022-12-25T17:43:42.391Z,100105.53
2022-12-25T17:46:14.390Z,100097.03
2022-12-25T17:48:40.844Z,100086.03
2022-12-25T17:51:10.160Z,100079.06
2022-12-25T17:53:38.410Z,100088.25
2022-12-25T17:56:05.181Z,100086.59
2022-12-25T17:58:31.826Z,100084.19
2022-12-25T18:00:58.804Z,100093.84
2022-12-25T18:03:25.290Z,100105.34
2022-12-25T18:05:51.714Z,100110.84
2022-12-25T18:08:18.067Z,100101.81
2022-12-25T18:10:44.468Z,100103.19
2022-12-25T18:13:11.746Z,100105.28
2022-12-25T18:15:39.477Z,100097.13
2022-12-25T18:18:07.628Z,100095.50
2022-12-25T18:20:39.616Z,100097.44
2022-12-25T18:23:06.708Z,100092.78
2022-12-25T18:25:33.675Z,100091.00
2022-12-25T18:28:02.733Z,100087.78
2022-12-25T18:30:29.313Z,100083.50
2022-12-25T18:32:55.647Z,100078.94
2022-12-25T18:35:22.178Z,100078.84
2022-12-25T18:37:48.615Z,100076.16
2022-12-25T18:40:15.017Z,100080.16
2022-12-25T18:42:42.889Z,100088.19
2022-12-25T18:45:10.840Z,100081.16
2022-12-25T18:47:37.213Z,100084.78
2022-12-25T18:50:04.153Z,100082.00
2022-12-25T18:52:48.123Z,100086.44
2022-12-25T18:55:17.139Z,100086.44
2022-12-25T18:57:43.558Z,100078.41
2022-12-25T19:00:10.364Z,100071.19
2022-12-25T19:02:36.851Z,100074.06
2022-12-25T19:05:03.472Z,100070.78
2022-12-25T19:07:29.795Z,100070.91
2022-12-25T19:09:56.164Z,100071.53
2022-12-25T19:12:22.590Z,100071.75
2022-12-25T19:14:49.275Z,100058.75
2022-12-25T19:17:17.097Z,100056.94
2022-12-25T19:19:43.326Z,100066.09
2022-12-25T19:22:09.728Z,100063.41
2022-12-25T19:24:36.785Z,100073.09
2022-12-25T19:27:03.512Z,100075.94
2022-12-25T19:29:30.051Z,100075.59
2022-12-25T19:31:56.572Z,100082.09
2022-12-25T19:34:23.252Z,100090.97
2022-12-25T19:36:49.633Z,100096.50
2022-12-25T19:39:15.978Z,100107.16
2022-12-25T19:41:42.423Z,100102.50
2022-12-25T19:44:08.799Z,100091.13
2022-12-25T19:46:37.060Z,100078.47
2022-12-25T19:49:04.451Z,100075.50
2022-12-25T19:51:36.202Z,100077.09
2022-12-25T19:54:03.586Z,100089.47
2022-12-25T19:56:30.305Z,100092.81
2022-12-25T19:58:56.743Z,100091.25
2022-12-25T20:01:26.009Z,100090.53
2022-12-25T20:03:52.938Z,100063.22
2022-12-25T20:06:28.152Z,100071.94
2022-12-25T20:08:56.681Z,100084.47
2022-12-25T20:11:24.675Z,100090.81
2022-12-25T20:13:51.084Z,100082.78
2022-12-25T20:16:17.618Z,100082.59
2022-12-25T20:18:44.325Z,100087.63
2022-12-25T20:21:13.929Z,100087.16
2022-12-25T20:23:41.651Z,100078.28
2022-12-25T20:26:08.173Z,100079.75
2022-12-25T20:28:36.335Z,100083.28
2022-12-25T20:31:06.839Z,100088.47
2022-12-25T20:33:34.060Z,100077.94
2022-12-25T20:36:01.745Z,100090.00
2022-12-25T20:38:28.630Z,100092.97
2022-12-25T20:41:26.363Z,100095.94
2022-12-25T20:43:50.092Z,100085.63
2022-12-25T20:46:16.587Z,100081.53
2022-12-25T20:48:43.013Z,100086.66
2022-12-25T20:51:14.438Z,100089.59
2022-12-25T20:53:41.041Z,100098.44
2022-12-25T20:56:12.356Z,100096.44
2022-12-25T20:58:38.779Z,100091.25
2022-12-25T21:01:12.852Z,100098.09
2022-12-25T21:03:40.081Z,100116.84
2022-12-25T21:06:07.539Z,100128.59
2022-12-25T21:08:33.938Z,100130.59
2022-12-25T21:11:01.275Z,100126.56
2022-12-25T21:13:29.651Z,100125.63
2022-12-25T21:15:57.151Z,100127.50
2022-12-25T21:18:24.899Z,100133.19
2022-12-25T21:20:53.703Z,100133.72
2022-12-25T21:23:20.320Z,100139.19
2022-12-25T21:25:47.174Z,100132.34
2022-12-25T21:28:13.722Z,100131.50
2022-12-25T21:30:40.244Z,100135.66
2022-12-25T21:33:25.432Z,100133.19
2022-12-25T21:35:51.830Z,100149.44
2022-12-25T21:38:18.265Z,100155.47
2022-12-25T21:40:44.777Z,100151.72
2022-12-25T21:43:14.041Z,100150.63
2022-12-25T21:45:40.377Z,100161.25
2022-12-25T21:48:06.734Z,100160.91
2022-12-25T21:50:51.538Z,100152.41
2022-12-25T21:53:19.283Z,100155.38
2022-12-25T21:55:56.894Z,100150.69
2022-12-25T21:58:23.572Z,100147.84
2022-12-25T22:00:49.931Z,100155.78
2022-12-25T22:03:16.324Z,100153.66
2022-12-25T22:06:01.313Z,100150.44
2022-12-25T22:08:31.490Z,100154.13
2022-12-25T22:10:58.510Z,100147.91
2022-12-25T22:13:43.541Z,100152.88
2022-12-25T22:16:28.589Z,100146.03
2022-12-25T22:19:13.436Z,100148.59
2022-12-25T22:21:39.896Z,100150.75
2022-12-25T22:24:08.065Z,100153.66
2022-12-25T22:26:34.851Z,100157.25
2022-12-25T22:29:01.408Z,100159.84
2022-12-25T22:31:27.821Z,100155.72
2022-12-25T22:33:55.273Z,100151.63
2022-12-25T22:36:21.677Z,100152.69
2022-12-25T22:38:48.047Z,100151.75
2022-12-25T22:41:14.402Z,100147.94
2022-12-25T22:44:15.117Z,100158.25
2022-12-25T22:46:27.091Z,100151.63
2022-12-25T22:48:53.872Z,100162.13
2022-12-25T22:51:20.266Z,100150.78
2022-12-25T22:53:46.618Z,100151.81
2022-12-25T22:56:13.001Z,100153.47
2022-12-25T22:58:39.395Z,100149.81
2022-12-25T23:01:09.009Z,100155.50
2022-12-25T23:03:35.535Z,100151.22
2022-12-25T23:06:02.463Z,100148.03
2022-12-25T23:08:29.573Z,100165.28
2022-12-25T23:10:56.028Z,100153.00
2022-12-25T23:13:41.081Z,100165.81
2022-12-25T23:16:13.438Z,100160.13
2022-12-25T23:18:58.118Z,100166.78
2022-12-25T23:21:44.973Z,100176.81
2022-12-25T23:24:30.241Z,100168.94
2022-12-25T23:26:57.240Z,100169.44
2022-12-25T23:29:35.736Z,100166.09
2022-12-25T23:32:07.673Z,100175.34
2022-12-25T23:34:34.982Z,100177.66
2022-12-25T23:37:01.412Z,100173.97
2022-12-25T23:39:28.323Z,100164.22
2022-12-25T23:41:55.173Z,100163.06
2022-12-25T23:44:21.543Z,100165.31
2022-12-25T23:46:52.518Z,100170.66
2022-12-25T23:49:20.532Z,100171.94
2022-12-25T23:51:47.140Z,100171.53
2022-12-25T23:54:16.547Z,100160.25
2022-12-25T23:56:43.254Z,100159.31
2022-12-25T23:59:10.082Z,100163.19
